createdAt,value
2023-02-23T00:01:54.870Z,20.90
2023-02-23T00:04:23.538Z,21.25
2023-02-23T00:06:54.127Z,22.33
2023-02-23T00:09:24.511Z,20.58
2023-02-23T00:11:53.824Z,21.80
2023-02-23T00:14:24.609Z,21.38
2023-02-23T00:16:51.357Z,21.65
2023-02-23T00:19:18.165Z,21.52
2023-02-23T00:21:46.641Z,22.60
2023-02-23T00:24:15.740Z,21.83
2023-02-23T00:26:43.035Z,22.17
2023-02-23T00:29:17.451Z,21.45
2023-02-23T00:31:49.274Z,21.85
2023-02-23T00:34:20.993Z,20.00
2023-02-23T00:36:54.200Z,20.48
2023-02-23T00:39:23.298Z,20.52
2023-02-23T00:41:52.330Z,21.50
2023-02-23T00:44:20.915Z,20.75
2023-02-23T00:46:50.963Z,21.50
2023-02-23T00:49:19.403Z,22.42
2023-02-23T00:51:46.889Z,24.67
2023-02-23T00:54:15.483Z,20.40
2023-02-23T00:56:43.150Z,20.30
2023-02-23T00:59:10.326Z,21.95
2023-02-23T01:01:38.399Z,23.05
2023-02-23T01:04:07.140Z,22.27
2023-02-23T01:06:37.476Z,23.63
2023-02-23T01:09:09.320Z,22.95
2023-02-23T01:11:36.054Z,22.02
2023-02-23T01:14:02.823Z,22.42
2023-02-23T01:16:33.304Z,21.42
2023-02-23T01:19:04.408Z,22.00
2023-02-23T01:21:35.431Z,23.92
2023-02-23T01:24:02.836Z,22.52
2023-02-23T01:26:36.443Z,23.30
2023-02-23T01:29:13.741Z,25.45
2023-02-23T01:31:45.242Z,20.27
2023-02-23T01:34:14.147Z,22.98
2023-02-23T01:36:43.443Z,21.30
2023-02-23T01:39:18.675Z,22.73
2023-02-23T01:41:45.628Z,23.38
2023-02-23T01:44:15.381Z,24.85
2023-02-23T01:46:45.666Z,21.38
2023-02-23T01:49:20.406Z,21.27
2023-02-23T01:51:59.592Z,22.17
2023-02-23T01:54:31.193Z,23.70
2023-02-23T01:57:01.840Z,23.13
2023-02-23T01:59:36.417Z,23.33
2023-02-23T02:02:06.273Z,25.42
2023-02-23T02:04:45.284Z,25.83
2023-02-23T02:07:23.476Z,24.08
2023-02-23T02:10:12.786Z,24.27
2023-02-23T02:12:45.435Z,26.35
2023-02-23T02:15:19.524Z,24.77
2023-02-23T02:18:12.406Z,26.83
2023-02-23T02:21:15.094Z,25.48
2023-02-23T02:24:40.233Z,26.60
2023-02-23T02:27:34.196Z,26.85
2023-02-23T02:30:42.047Z,24.98
2023-02-23T02:33:46.722Z,27.05
2023-02-23T02:36:51.026Z,24.17
2023-02-23T02:39:53.482Z,26.15
2023-02-23T02:42:48.673Z,25.83
2023-02-23T02:45:25.121Z,27.23
2023-02-23T02:48:38.616Z,27.08
2023-02-23T02:51:55.421Z,25.75
2023-02-23T02:54:44.262Z,25.95
2023-02-23T02:57:12.826Z,24.33
2023-02-23T03:00:07.538Z,26.98
2023-02-23T03:02:56.301Z,26.30
2023-02-23T03:06:05.012Z,27.45
2023-02-23T03:09:09.507Z,24.90
2023-02-23T03:11:59.810Z,26.23
2023-02-23T03:15:17.963Z,27.00
2023-02-23T03:18:07.487Z,24.92
2023-02-23T03:20:52.640Z,24.50
2023-02-23T03:24:20.707Z,24.00
2023-02-23T03:27:29.791Z,24.80
2023-02-23T03:30:30.418Z,23.33
2023-02-23T03:33:25.098Z,28.45
2023-02-23T03:36:38.278Z,28.35
2023-02-23T03:39:47.812Z,25.60
2023-02-23T03:42:38.602Z,24.05
2023-02-23T03:45:31.473Z,26.85
2023-02-23T03:48:18.701Z,25.80
2023-02-23T03:51:19.582Z,24.83
2023-02-23T03:54:27.680Z,23.80
2023-02-23T03:57:15.446Z,27.13
2023-02-23T04:00:11.554Z,26.30
2023-02-23T04:03:00.088Z,23.70
2023-02-23T04:05:47.610Z,25.00
2023-02-23T04:08:36.394Z,21.65
2023-02-23T04:11:33.646Z,24.70
2023-02-23T04:14:04.553Z,24.27
2023-02-23T04:16:32.573Z,22.73
2023-02-23T04:18:59.453Z,26.75
2023-02-23T04:21:26.346Z,24.42
2023-02-23T04:23:53.047Z,25.75
2023-02-23T04:26:19.780Z,27.25
2023-02-23T04:28:46.518Z,27.85
2023-02-23T04:31:13.324Z,28.10
2023-02-23T04:33:40.048Z,24.90
2023-02-23T04:36:07.292Z,26.90
2023-02-23T04:38:34.041Z,25.65
2023-02-23T04:41:00.801Z,27.17
2023-02-23T04:43:27.560Z,27.20
2023-02-23T04:45:54.348Z,25.58
2023-02-23T04:48:21.114Z,27.55
2023-02-23T04:50:47.830Z,26.80
2023-02-23T04:53:14.589Z,26.95
2023-02-23T04:55:41.351Z,29.35
2023-02-23T04:58:13.561Z,27.77
2023-02-23T05:00:41.130Z,27.17
2023-02-23T05:03:07.913Z,27.98
2023-02-23T05:05:34.636Z,28.45
2023-02-23T05:08:01.479Z,28.58
2023-02-23T05:10:28.923Z,29.98
2023-02-23T05:12:56.271Z,27.75
2023-02-23T05:15:23.115Z,29.88
2023-02-23T05:17:49.875Z,28.73
2023-02-23T05:20:16.616Z,29.48
2023-02-23T05:22:43.345Z,28.83
2023-02-23T05:25:10.460Z,29.63
2023-02-23T05:27:37.819Z,29.52
2023-02-23T05:30:07.670Z,29.88
2023-02-23T05:32:34.876Z,29.40
2023-02-23T05:35:02.986Z,28.65
2023-02-23T05:37:29.714Z,28.25
2023-02-23T06:02:15.587Z,17.75
2023-02-23T06:04:42.485Z,20.63
2023-02-23T06:07:09.193Z,22.45
2023-02-23T06:09:36.137Z,21.90
2023-02-23T06:12:02.876Z,21.58
2023-02-23T06:14:29.642Z,25.65
2023-02-23T06:16:56.442Z,24.55
2023-02-23T06:19:23.222Z,25.20
2023-02-23T06:21:49.941Z,27.25
2023-02-23T06:24:17.742Z,23.60
2023-02-23T06:26:44.648Z,24.55
2023-02-23T06:29:12.307Z,25.33
2023-02-23T06:31:39.364Z,26.17
2023-02-23T06:34:06.204Z,26.48
2023-02-23T06:36:32.966Z,27.15
2023-02-23T06:39:00.134Z,27.23
2023-02-23T06:41:27.262Z,28.48
2023-02-23T06:43:54.095Z,27.92
2023-02-23T06:46:21.245Z,27.17
2023-02-23T06:48:48.047Z,29.05
2023-02-23T06:51:14.782Z,26.83
2023-02-23T06:53:41.513Z,28.98
2023-02-23T06:56:08.420Z,28.85
2023-02-23T06:58:35.245Z,28.98
2023-02-23T07:01:02.246Z,28.50
2023-02-23T07:03:28.980Z,29.23
2023-02-23T07:05:55.781Z,29.48
2023-02-23T07:08:22.519Z,28.55
2023-02-23T07:10:49.473Z,28.58
2023-02-23T07:13:16.439Z,30.15
2023-02-23T07:15:43.515Z,27.52
2023-02-23T07:18:10.309Z,26.70
2023-02-23T07:20:37.132Z,29.30
2023-02-23T07:23:03.891Z,26.17
2023-02-23T07:25:30.981Z,27.88
2023-02-23T07:27:58.983Z,28.15
2023-02-23T07:30:26.223Z,25.25
2023-02-23T07:32:54.087Z,30.70
2023-02-23T07:35:21.082Z,28.88
2023-02-23T07:37:47.803Z,30.00
2023-02-23T07:40:14.859Z,28.85
2023-02-23T07:42:41.609Z,31.60
2023-02-23T07:45:09.604Z,30.73
2023-02-23T07:47:39.243Z,30.85
2023-02-23T07:50:10.243Z,28.40
2023-02-23T07:52:38.794Z,29.85
2023-02-23T07:55:07.581Z,30.17
2023-02-23T07:57:34.941Z,29.23
2023-02-23T08:00:02.218Z,31.45
2023-02-23T08:02:29.546Z,31.63
2023-02-23T08:04:56.280Z,29.98
2023-02-23T08:07:24.328Z,31.40
2023-02-23T08:09:51.492Z,29.75
2023-02-23T08:12:18.454Z,29.73
2023-02-23T08:14:45.240Z,32.03
2023-02-23T08:17:12.540Z,32.17
2023-02-23T08:19:39.966Z,31.63
2023-02-23T08:22:09.907Z,29.48
2023-02-23T08:24:37.649Z,27.50
2023-02-23T08:27:04.614Z,29.27
2023-02-23T08:29:31.876Z,29.15
2023-02-23T08:31:58.761Z,28.58
2023-02-23T08:34:25.677Z,26.50
2023-02-23T08:36:53.802Z,28.02
2023-02-23T08:39:21.490Z,27.42
2023-02-23T08:41:48.249Z,27.90
2023-02-23T08:44:15.068Z,30.58
2023-02-23T08:46:42.432Z,31.77
2023-02-23T08:49:10.653Z,27.35
2023-02-23T08:51:37.378Z,28.30
2023-02-23T08:54:04.104Z,31.67
2023-02-23T08:56:31.676Z,31.70
2023-02-23T08:58:58.407Z,30.90
2023-02-23T09:01:25.165Z,28.50
2023-02-23T09:03:52.067Z,30.15
2023-02-23T09:06:22.433Z,29.67
2023-02-23T09:08:49.729Z,31.13
2023-02-23T09:11:16.502Z,32.13
2023-02-23T09:13:44.464Z,30.13
2023-02-23T09:16:11.316Z,31.13
2023-02-23T09:18:38.759Z,30.45
2023-02-23T09:21:08.456Z,27.70
2023-02-23T09:23:36.471Z,29.48
2023-02-23T09:26:08.416Z,28.83
2023-02-23T09:28:36.205Z,27.15
2023-02-23T09:31:08.907Z,30.42
2023-02-23T09:33:36.250Z,28.58
2023-02-23T09:36:16.183Z,27.75
2023-02-23T09:38:45.354Z,29.02
2023-02-23T09:41:43.393Z,27.45
2023-02-23T09:44:34.181Z,25.60
2023-02-23T09:47:19.494Z,25.40
2023-02-23T09:49:48.153Z,25.42
2023-02-23T09:52:44.921Z,24.35
2023-02-23T09:55:14.669Z,27.25
2023-02-23T09:57:46.213Z,24.80
2023-02-23T10:00:27.320Z,26.08
2023-02-23T10:03:19.204Z,27.42
2023-02-23T10:06:02.013Z,24.73
2023-02-23T10:09:32.600Z,26.23
2023-02-23T10:12:13.387Z,23.65
2023-02-23T10:15:25.346Z,27.90
2023-02-23T10:18:50.228Z,27.25
2023-02-23T10:21:33.550Z,24.48
2023-02-23T10:24:05.824Z,25.92
2023-02-23T10:26:49.591Z,24.27
2023-02-23T10:29:32.771Z,26.25
2023-02-23T10:32:07.810Z,25.80
2023-02-23T10:34:37.103Z,25.85
2023-02-23T10:37:06.971Z,24.95
2023-02-23T10:39:34.474Z,26.67
2023-02-23T10:42:06.618Z,26.33
2023-02-23T10:47:06.963Z,22.38
2023-02-23T10:49:54.664Z,22.80
2023-02-23T10:52:33.982Z,22.42
2023-02-23T10:55:05.278Z,20.00
2023-02-23T10:57:39.889Z,22.27
2023-02-23T11:00:16.184Z,21.85
2023-02-23T11:02:47.602Z,19.73
2023-02-23T11:05:46.048Z,21.30
2023-02-23T11:08:37.411Z,20.92
2023-02-23T11:11:16.229Z,18.98
2023-02-23T11:13:47.075Z,19.58
2023-02-23T11:16:26.697Z,16.13
2023-02-23T11:19:00.173Z,20.10
2023-02-23T11:21:34.773Z,17.08
2023-02-23T11:24:19.810Z,18.40
2023-02-23T11:26:48.914Z,18.13
2023-02-23T11:29:37.899Z,16.63
2023-02-23T11:32:20.911Z,15.07
2023-02-23T11:35:11.771Z,13.68
2023-02-23T11:37:38.534Z,13.55
2023-02-23T11:40:28.550Z,13.05
2023-02-23T11:43:18.986Z,13.10
2023-02-23T11:45:49.744Z,11.80
2023-02-23T11:48:42.791Z,12.02
2023-02-23T11:51:10.320Z,13.00
2023-02-23T11:53:46.075Z,12.80
2023-02-23T11:56:22.133Z,11.52
2023-02-23T11:58:50.934Z,13.70
2023-02-23T12:01:23.569Z,12.85
2023-02-23T12:03:52.414Z,13.57
2023-02-23T12:06:40.628Z,13.80
2023-02-23T12:09:26.915Z,14.30
2023-02-23T12:12:03.897Z,12.25
2023-02-23T12:14:57.081Z,12.93
2023-02-23T12:17:51.289Z,12.98
2023-02-23T12:20:32.776Z,11.95
2023-02-23T12:23:25.878Z,11.05
2023-02-23T12:25:57.032Z,12.13
2023-02-23T12:28:48.137Z,11.80
2023-02-23T12:31:48.434Z,11.40
2023-02-23T12:34:23.038Z,11.10
2023-02-23T12:37:20.328Z,11.77
2023-02-23T12:39:57.519Z,11.55
2023-02-23T12:42:36.215Z,10.90
2023-02-23T12:45:06.930Z,12.02
2023-02-23T12:48:00.566Z,12.00
2023-02-23T12:50:50.216Z,10.65
2023-02-23T12:53:40.130Z,11.15
2023-02-23T12:56:37.318Z,11.55
2023-02-23T12:59:53.647Z,11.68
2023-02-23T13:02:30.214Z,13.00
2023-02-23T13:05:34.378Z,12.85
2023-02-23T13:08:57.926Z,13.30
2023-02-23T13:11:47.483Z,13.73
2023-02-23T13:14:31.438Z,19.75
2023-02-23T13:17:25.614Z,22.95
2023-02-23T13:20:07.039Z,15.80
2023-02-23T13:22:48.579Z,14.27
2023-02-23T13:26:10.095Z,13.52
2023-02-23T13:29:06.418Z,13.70
2023-02-23T13:31:37.115Z,12.95
2023-02-23T13:34:12.529Z,13.88
2023-02-23T13:36:40.722Z,13.85
2023-02-23T13:39:27.836Z,13.02
2023-02-23T13:42:28.567Z,13.90
2023-02-23T13:45:32.165Z,12.82
2023-02-23T13:48:28.032Z,13.00
2023-02-23T13:51:09.632Z,12.23
2023-02-23T13:53:49.227Z,14.23
2023-02-23T13:56:23.256Z,14.88
2023-02-23T13:59:00.225Z,14.50
2023-02-23T14:01:32.577Z,13.27
2023-02-23T14:04:03.781Z,12.68
2023-02-23T14:06:33.612Z,13.73
2023-02-23T14:09:17.002Z,13.25
2023-02-23T14:11:50.925Z,12.43
2023-02-23T14:14:33.140Z,12.93
2023-02-23T14:17:16.100Z,13.45
2023-02-23T14:20:13.277Z,15.27
2023-02-23T14:23:19.867Z,13.18
2023-02-23T14:26:09.940Z,14.18
2023-02-23T14:28:46.399Z,14.70
2023-02-23T14:31:13.168Z,15.75
2023-02-23T14:33:43.054Z,14.43
2023-02-23T14:36:38.545Z,14.55
2023-02-23T14:39:17.513Z,16.77
2023-02-23T14:41:56.545Z,15.82
2023-02-23T14:44:32.361Z,15.50
2023-02-23T14:47:09.039Z,14.75
2023-02-23T14:49:44.923Z,15.23
2023-02-23T14:52:29.108Z,16.65
2023-02-23T14:55:22.692Z,16.10
2023-02-23T14:57:49.969Z,15.25
2023-02-23T15:00:28.905Z,17.48
2023-02-23T15:03:13.541Z,15.07
2023-02-23T15:05:52.647Z,14.80
2023-02-23T15:08:23.979Z,16.63
2023-02-23T15:11:13.640Z,16.63
2023-02-23T15:13:43.139Z,16.58
2023-02-23T15:16:29.105Z,14.63
2023-02-23T15:19:33.266Z,16.58
2023-02-23T15:22:02.052Z,15.40
2023-02-23T15:24:41.995Z,16.17
2023-02-23T15:27:26.779Z,15.18
2023-02-23T15:29:55.442Z,15.20
2023-02-23T15:32:25.238Z,15.27
2023-02-23T15:34:53.640Z,15.25
2023-02-23T15:37:38.163Z,16.40
2023-02-23T15:40:11.983Z,15.00
2023-02-23T15:42:52.734Z,14.90
2023-02-23T15:45:40.170Z,14.48
2023-02-23T15:48:18.163Z,14.25
2023-02-23T15:50:53.074Z,13.80
2023-02-23T15:53:33.902Z,14.18
2023-02-23T15:56:19.836Z,13.38
2023-02-23T15:58:56.985Z,14.95
2023-02-23T16:01:28.382Z,12.75
2023-02-23T16:04:02.921Z,13.32
2023-02-23T16:06:41.774Z,11.27
2023-02-23T16:09:19.816Z,12.50
2023-02-23T16:11:54.752Z,11.82
2023-02-23T16:14:24.037Z,13.18
2023-02-23T16:17:08.449Z,13.25
2023-02-23T16:19:40.994Z,12.32
2023-02-23T16:22:20.525Z,11.07
2023-02-23T16:25:17.810Z,11.65
2023-02-23T16:27:47.096Z,12.77
2023-02-23T16:30:32.079Z,12.20
2023-02-23T16:33:08.320Z,12.25
2023-02-23T16:35:45.214Z,11.70
2023-02-23T16:38:33.331Z,11.82
2023-02-23T16:41:00.195Z,11.65
2023-02-23T16:43:27.167Z,11.27
2023-02-23T16:45:54.003Z,12.15
2023-02-23T16:48:20.735Z,10.35
2023-02-23T16:50:48.879Z,11.43
2023-02-23T16:53:16.862Z,11.43
2023-02-23T16:55:52.935Z,12.10
2023-02-23T16:58:25.709Z,10.75
2023-02-23T17:00:53.526Z,11.70
2023-02-23T17:03:27.673Z,11.32
2023-02-23T17:05:54.880Z,10.90
2023-02-23T17:08:21.933Z,10.07
2023-02-23T17:10:54.291Z,11.38
2023-02-23T17:13:24.205Z,10.07
2023-02-23T17:15:53.967Z,10.13
2023-02-23T17:18:27.832Z,9.98
2023-02-23T17:20:56.624Z,10.35
2023-02-23T17:23:38.118Z,11.00
2023-02-23T17:26:10.882Z,10.27
2023-02-23T17:28:38.883Z,10.00
2023-02-23T17:31:06.974Z,10.00
2023-02-23T17:33:34.723Z,11.93
2023-02-23T17:36:06.732Z,12.70
2023-02-23T17:38:34.073Z,13.57
2023-02-23T17:41:03.720Z,11.65
2023-02-23T17:43:30.763Z,11.27
2023-02-23T17:45:58.196Z,11.25
2023-02-23T17:48:26.855Z,10.15
2023-02-23T17:51:05.152Z,10.60
2023-02-23T17:53:32.691Z,11.43
2023-02-23T17:55:59.684Z,10.13
2023-02-23T17:58:26.897Z,9.82
2023-02-23T18:01:00.602Z,11.02
2023-02-23T18:03:32.005Z,9.40
2023-02-23T18:06:08.643Z,10.73
2023-02-23T18:08:36.865Z,9.88
2023-02-23T18:11:03.981Z,8.65
2023-02-23T18:13:33.206Z,8.85
2023-02-23T18:16:10.930Z,8.88
2023-02-23T18:18:44.972Z,8.52
2023-02-23T18:21:16.031Z,9.25
2023-02-23T18:23:43.448Z,8.77
2023-02-23T18:26:17.401Z,9.38
2023-02-23T18:28:45.682Z,8.90
2023-02-23T18:31:15.909Z,9.02
2023-02-23T18:33:44.690Z,8.05
2023-02-23T18:36:28.167Z,8.50
2023-02-23T18:38:57.555Z,7.80
2023-02-23T18:41:30.518Z,8.27
2023-02-23T18:43:59.979Z,8.82
2023-02-23T18:46:27.429Z,10.32
2023-02-23T18:48:56.805Z,9.00
2023-02-23T18:51:25.678Z,7.85
2023-02-23T18:53:53.562Z,7.20
2023-02-23T18:56:25.080Z,9.40
2023-02-23T18:59:01.256Z,7.07
2023-02-23T19:01:33.234Z,7.22
2023-02-23T19:04:02.125Z,7.90
2023-02-23T19:06:30.402Z,6.82
2023-02-23T19:08:59.473Z,7.70
2023-02-23T19:11:30.553Z,6.88
2023-02-23T19:14:01.112Z,6.22
2023-02-23T19:16:31.201Z,5.80
2023-02-23T19:18:59.633Z,8.07
2023-02-23T19:21:26.718Z,7.00
2023-02-23T19:23:57.511Z,7.63
2023-02-23T19:26:25.786Z,6.22
2023-02-23T19:28:53.281Z,6.70
2023-02-23T19:31:24.177Z,6.70
2023-02-23T19:33:52.240Z,7.82
2023-02-23T19:36:23.818Z,7.68
2023-02-23T19:38:50.563Z,7.63
2023-02-23T19:41:21.468Z,8.48
2023-02-23T19:43:48.555Z,6.97
2023-02-23T19:46:17.320Z,7.53
2023-02-23T19:48:48.516Z,6.07
2023-02-23T19:51:15.266Z,5.80
2023-02-23T19:53:41.966Z,6.15
2023-02-23T19:56:12.904Z,5.82
2023-02-23T19:58:46.453Z,6.40
2023-02-23T20:01:17.081Z,7.22
2023-02-23T20:03:47.289Z,13.77
2023-02-23T20:06:17.553Z,8.25
2023-02-23T20:08:45.898Z,9.73
2023-02-23T20:11:12.664Z,7.93
2023-02-23T20:13:40.301Z,9.35
2023-02-23T20:16:11.102Z,8.93
2023-02-23T20:18:40.136Z,9.82
2023-02-23T20:21:16.061Z,10.18
2023-02-23T20:23:44.614Z,10.77
2023-02-23T20:26:16.158Z,10.00
2023-02-23T20:28:42.930Z,9.20
2023-02-23T20:31:32.962Z,8.50
2023-02-23T20:34:05.082Z,7.22
2023-02-23T20:39:00.217Z,6.20
2023-02-23T20:41:31.475Z,7.22
2023-02-23T20:44:00.638Z,6.37
2023-02-23T20:46:28.360Z,7.40
2023-02-23T20:48:55.196Z,6.40
2023-02-23T20:51:22.825Z,7.35
2023-02-23T20:53:49.777Z,7.30
2023-02-23T20:56:19.268Z,8.52
2023-02-23T20:58:47.184Z,8.65
2023-02-23T21:01:19.170Z,8.30
2023-02-23T21:03:46.578Z,7.10
2023-02-23T21:06:13.467Z,8.18
2023-02-23T21:08:42.472Z,7.32
2023-02-23T21:11:09.230Z,7.90
2023-02-23T21:13:36.480Z,7.63
2023-02-23T21:16:03.541Z,7.07
2023-02-23T21:18:31.169Z,7.55
2023-02-23T21:21:09.658Z,6.95
2023-02-23T21:23:39.157Z,5.90
2023-02-23T21:26:15.844Z,5.93
2023-02-23T21:28:45.385Z,5.22
2023-02-23T21:31:14.231Z,5.28
2023-02-23T21:33:43.463Z,4.40
2023-02-23T21:36:12.460Z,6.03
2023-02-23T21:38:41.898Z,4.25
2023-02-23T21:41:09.612Z,3.92
2023-02-23T21:43:38.538Z,4.82
2023-02-23T21:46:12.116Z,4.38
2023-02-23T21:48:38.900Z,3.78
2023-02-23T21:51:08.881Z,3.83
2023-02-23T21:53:37.493Z,4.72
2023-02-23T21:56:21.086Z,4.65
2023-02-23T21:58:50.851Z,4.65
2023-02-23T22:01:27.491Z,5.13
2023-02-23T22:03:55.088Z,4.75
2023-02-23T22:06:26.036Z,4.35
2023-02-23T22:08:53.982Z,4.50
2023-02-23T22:11:25.838Z,4.53
2023-02-23T22:13:58.681Z,4.32
2023-02-23T22:16:35.847Z,4.25
2023-02-23T22:19:04.205Z,3.85
2023-02-23T22:21:37.124Z,5.05
2023-02-23T22:24:05.395Z,5.15
2023-02-23T22:26:39.109Z,4.28
2023-02-23T22:29:08.722Z,5.07
2023-02-23T22:31:37.601Z,4.57
2023-02-23T22:34:06.069Z,4.85
2023-02-23T22:36:34.220Z,5.28
2023-02-23T22:39:02.081Z,6.78
2023-02-23T22:41:31.480Z,6.07
2023-02-23T22:43:58.953Z,4.35
2023-02-23T22:46:26.195Z,4.13
2023-02-23T22:48:53.382Z,5.10
2023-02-23T22:51:20.646Z,4.80
2023-02-23T22:53:47.663Z,4.25
2023-02-23T22:56:14.426Z,5.18
2023-02-23T22:58:42.135Z,4.70
2023-02-23T23:01:11.934Z,4.40
2023-02-23T23:03:48.026Z,3.90
2023-02-23T23:06:21.762Z,4.20
2023-02-23T23:08:51.740Z,4.60
2023-02-23T23:11:23.034Z,4.18
2023-02-23T23:14:01.675Z,3.05
2023-02-23T23:16:32.572Z,2.80
2023-02-23T23:19:03.877Z,3.38
2023-02-23T23:21:33.958Z,3.00
2023-02-23T23:24:06.521Z,2.95
2023-02-23T23:26:39.546Z,3.90
2023-02-23T23:29:10.170Z,3.35
2023-02-23T23:31:39.593Z,3.63
2023-02-23T23:34:10.620Z,3.05
2023-02-23T23:36:48.864Z,2.42
2023-02-23T23:39:18.308Z,3.50
2023-02-23T23:41:48.281Z,1.77
2023-02-23T23:44:21.312Z,2.90
2023-02-23T23:46:52.679Z,2.33
2023-02-23T23:49:23.097Z,2.50
2023-02-23T23:51:55.900Z,2.20
2023-02-23T23:54:29.892Z,2.60
2023-02-23T23:56:58.818Z,3.45
2023-02-23T23:59:26.662Z,2.13
